sensor_id;sensor_type;location;lat;lon;timestamp;temperature;humidity
21508;DHT22;10915;54.352;9.074;2022-11-14T00:00:08;9.90;99.90
21508;DHT22;10915;54.352;9.074;2022-11-14T00:02:35;9.90;99.90
21508;DHT22;10915;54.352;9.074;2022-11-14T00:05:01;9.90;99.90
21508;DHT22;10915;54.352;9.074;2022-11-14T00:07:29;9.90;99.90
21508;DHT22;10915;54.352;9.074;2022-11-14T00:09:55;9.90;99.90
21508;DHT22;10915;54.352;9.074;2022-11-14T00:12:21;9.90;99.90
21508;DHT22;10915;54.352;9.074;2022-11-14T00:14:46;9.80;99.90
21508;DHT22;10915;54.352;9.074;2022-11-14T00:17:12;9.70;99.90
21508;DHT22;10915;54.352;9.074;2022-11-14T00:19:38;9.70;99.90
21508;DHT22;10915;54.352;9.074;2022-11-14T00:22:04;9.70;99.90
21508;DHT22;10915;54.352;9.074;2022-11-14T00:24:30;9.70;99.90
21508;DHT22;10915;54.352;9.074;2022-11-14T00:26:55;9.70;99.90
21508;DHT22;10915;54.352;9.074;2022-11-14T00:29:21;9.70;99.90
21508;DHT22;10915;54.352;9.074;2022-11-14T00:31:47;9.70;99.90
21508;DHT22;10915;54.352;9.074;2022-11-14T00:34:12;9.60;99.90
21508;DHT22;10915;54.352;9.074;2022-11-14T00:36:38;9.60;99.90
21508;DHT22;10915;54.352;9.074;2022-11-14T00:39:04;9.60;99.90
21508;DHT22;10915;54.352;9.074;2022-11-14T00:41:29;9.60;99.90
21508;DHT22;10915;54.352;9.074;2022-11-14T00:43:55;9.60;99.90
21508;DHT22;10915;54.352;9.074;2022-11-14T00:46:21;9.60;99.90
21508;DHT22;10915;54.352;9.074;2022-11-14T00:48:46;9.60;99.90
21508;DHT22;10915;54.352;9.074;2022-11-14T00:51:12;9.50;99.90
21508;DHT22;10915;54.352;9.074;2022-11-14T00:53:38;9.50;99.90
21508;DHT22;10915;54.352;9.074;2022-11-14T00:56:04;9.50;99.90
21508;DHT22;10915;54.352;9.074;2022-11-14T00:58:30;9.50;99.90
21508;DHT22;10915;54.352;9.074;2022-11-14T01:00:55;9.40;99.90
21508;DHT22;10915;54.352;9.074;2022-11-14T01:03:22;9.40;99.90
21508;DHT22;10915;54.352;9.074;2022-11-14T01:05:49;9.40;99.90
21508;DHT22;10915;54.352;9.074;2022-11-14T01:08:17;9.40;99.90
21508;DHT22;10915;54.352;9.074;2022-11-14T01:10:44;9.40;99.90
21508;DHT22;10915;54.352;9.074;2022-11-14T01:13:11;9.40;99.90
21508;DHT22;10915;54.352;9.074;2022-11-14T01:15:42;9.30;99.90
21508;DHT22;10915;54.352;9.074;2022-11-14T01:18:13;9.30;99.90
21508;DHT22;10915;54.352;9.074;2022-11-14T01:20:44;9.30;99.90
21508;DHT22;10915;54.352;9.074;2022-11-14T01:23:11;9.30;99.90
21508;DHT22;10915;54.352;9.074;2022-11-14T01:25:38;9.30;99.90
21508;DHT22;10915;54.352;9.074;2022-11-14T01:28:11;9.40;99.90
21508;DHT22;10915;54.352;9.074;2022-11-14T01:30:37;9.30;99.90
21508;DHT22;10915;54.352;9.074;2022-11-14T01:33:03;9.30;99.90
21508;DHT22;10915;54.352;9.074;2022-11-14T01:35:30;9.30;99.90
21508;DHT22;10915;54.352;9.074;2022-11-14T01:37:56;9.30;99.90
21508;DHT22;10915;54.352;9.074;2022-11-14T01:40:22;9.40;99.90
21508;DHT22;10915;54.352;9.074;2022-11-14T01:51:02;9.40;99.90
21508;DHT22;10915;54.352;9.074;2022-11-14T01:53:30;9.40;99.90
21508;DHT22;10915;54.352;9.074;2022-11-14T01:56:00;9.40;99.90
21508;DHT22;10915;54.352;9.074;2022-11-14T01:58:28;9.40;99.90
21508;DHT22;10915;54.352;9.074;2022-11-14T02:00:55;9.30;99.90
21508;DHT22;10915;54.352;9.074;2022-11-14T02:03:22;9.30;99.90
21508;DHT22;10915;54.352;9.074;2022-11-14T02:05:49;9.30;99.90
21508;DHT22;10915;54.352;9.074;2022-11-14T02:08:18;9.30;99.90
21508;DHT22;10915;54.352;9.074;2022-11-14T02:10:46;9.30;99.90
21508;DHT22;10915;54.352;9.074;2022-11-14T02:13:12;9.20;99.90
21508;DHT22;10915;54.352;9.074;2022-11-14T02:15:44;9.20;99.90
21508;DHT22;10915;54.352;9.074;2022-11-14T02:18:14;9.20;99.90
21508;DHT22;10915;54.352;9.074;2022-11-14T02:20:40;9.10;99.90
21508;DHT22;10915;54.352;9.074;2022-11-14T02:23:09;9.10;99.90
21508;DHT22;10915;54.352;9.074;2022-11-14T02:25:36;9.00;99.90
21508;DHT22;10915;54.352;9.074;2022-11-14T02:28:03;9.00;99.90
21508;DHT22;10915;54.352;9.074;2022-11-14T02:30:30;9.00;99.90
21508;DHT22;10915;54.352;9.074;2022-11-14T02:32:55;9.00;99.90
21508;DHT22;10915;54.352;9.074;2022-11-14T02:35:21;8.90;99.90
21508;DHT22;10915;54.352;9.074;2022-11-14T02:37:47;8.90;99.90
21508;DHT22;10915;54.352;9.074;2022-11-14T02:40:12;8.90;99.90
21508;DHT22;10915;54.352;9.074;2022-11-14T02:42:38;8.80;99.90
21508;DHT22;10915;54.352;9.074;2022-11-14T02:45:04;8.90;99.90
21508;DHT22;10915;54.352;9.074;2022-11-14T02:47:33;8.80;99.90
21508;DHT22;10915;54.352;9.074;2022-11-14T02:49:59;8.80;99.90
21508;DHT22;10915;54.352;9.074;2022-11-14T02:52:24;8.80;99.90
21508;DHT22;10915;54.352;9.074;2022-11-14T02:54:50;8.80;99.90
21508;DHT22;10915;54.352;9.074;2022-11-14T02:57:16;8.80;99.90
21508;DHT22;10915;54.352;9.074;2022-11-14T02:59:41;8.80;99.90
21508;DHT22;10915;54.352;9.074;2022-11-14T03:02:07;8.70;99.90
21508;DHT22;10915;54.352;9.074;2022-11-14T03:04:32;8.70;99.90
21508;DHT22;10915;54.352;9.074;2022-11-14T03:06:58;8.70;99.90
21508;DHT22;10915;54.352;9.074;2022-11-14T03:09:24;8.70;99.90
21508;DHT22;10915;54.352;9.074;2022-11-14T03:11:49;8.70;99.90
21508;DHT22;10915;54.352;9.074;2022-11-14T03:14:15;8.70;99.90
21508;DHT22;10915;54.352;9.074;2022-11-14T03:16:41;8.70;99.90
21508;DHT22;10915;54.352;9.074;2022-11-14T03:19:06;8.70;99.90
21508;DHT22;10915;54.352;9.074;2022-11-14T03:21:32;8.70;99.90
21508;DHT22;10915;54.352;9.074;2022-11-14T03:23:58;8.70;99.90
21508;DHT22;10915;54.352;9.074;2022-11-14T03:26:23;8.60;99.90
21508;DHT22;10915;54.352;9.074;2022-11-14T03:28:49;8.60;99.90
21508;DHT22;10915;54.352;9.074;2022-11-14T03:31:15;8.70;99.90
21508;DHT22;10915;54.352;9.074;2022-11-14T03:33:41;8.60;99.90
21508;DHT22;10915;54.352;9.074;2022-11-14T03:36:07;8.60;99.90
21508;DHT22;10915;54.352;9.074;2022-11-14T03:38:33;8.60;99.90
21508;DHT22;10915;54.352;9.074;2022-11-14T03:40:59;8.60;99.90
21508;DHT22;10915;54.352;9.074;2022-11-14T03:43:29;8.60;99.90
21508;DHT22;10915;54.352;9.074;2022-11-14T03:46:00;8.60;99.90
21508;DHT22;10915;54.352;9.074;2022-11-14T03:48:27;8.60;99.90
21508;DHT22;10915;54.352;9.074;2022-11-14T03:50:53;8.60;99.90
21508;DHT22;10915;54.352;9.074;2022-11-14T03:53:19;8.60;99.90
21508;DHT22;10915;54.352;9.074;2022-11-14T03:55:45;8.60;99.90
21508;DHT22;10915;54.352;9.074;2022-11-14T03:58:10;8.60;99.90
21508;DHT22;10915;54.352;9.074;2022-11-14T04:00:36;8.60;99.90
21508;DHT22;10915;54.352;9.074;2022-11-14T04:03:02;8.60;99.90
21508;DHT22;10915;54.352;9.074;2022-11-14T04:05:28;8.60;99.90
21508;DHT22;10915;54.352;9.074;2022-11-14T04:07:54;8.60;99.90
21508;DHT22;10915;54.352;9.074;2022-11-14T04:10:20;8.50;99.90
21508;DHT22;10915;54.352;9.074;2022-11-14T04:12:54;8.50;99.90
21508;DHT22;10915;54.352;9.074;2022-11-14T04:15:20;8.50;99.90
21508;DHT22;10915;54.352;9.074;2022-11-14T04:17:46;8.50;99.90
21508;DHT22;10915;54.352;9.074;2022-11-14T04:20:13;8.40;99.90
21508;DHT22;10915;54.352;9.074;2022-11-14T04:22:39;8.50;99.90
21508;DHT22;10915;54.352;9.074;2022-11-14T04:25:06;8.40;99.90
21508;DHT22;10915;54.352;9.074;2022-11-14T04:27:32;8.40;99.90
21508;DHT22;10915;54.352;9.074;2022-11-14T04:29:58;8.40;99.90
21508;DHT22;10915;54.352;9.074;2022-11-14T04:32:23;8.40;99.90
21508;DHT22;10915;54.352;9.074;2022-11-14T04:34:49;8.40;99.90
21508;DHT22;10915;54.352;9.074;2022-11-14T04:37:15;8.40;99.90
21508;DHT22;10915;54.352;9.074;2022-11-14T04:39:41;8.40;99.90
21508;DHT22;10915;54.352;9.074;2022-11-14T04:42:06;8.40;99.90
21508;DHT22;10915;54.352;9.074;2022-11-14T04:44:32;8.40;99.90
21508;DHT22;10915;54.352;9.074;2022-11-14T04:46:58;8.40;99.90
21508;DHT22;10915;54.352;9.074;2022-11-14T04:49:23;8.30;99.90
21508;DHT22;10915;54.352;9.074;2022-11-14T04:51:49;8.40;99.90
21508;DHT22;10915;54.352;9.074;2022-11-14T04:54:15;8.40;99.90
21508;DHT22;10915;54.352;9.074;2022-11-14T04:56:40;8.40;99.90
21508;DHT22;10915;54.352;9.074;2022-11-14T04:59:06;8.40;99.90
21508;DHT22;10915;54.352;9.074;2022-11-14T05:01:32;8.30;99.90
21508;DHT22;10915;54.352;9.074;2022-11-14T05:03:58;8.40;99.90
21508;DHT22;10915;54.352;9.074;2022-11-14T05:06:25;8.30;99.90
21508;DHT22;10915;54.352;9.074;2022-11-14T05:08:50;8.30;99.90
21508;DHT22;10915;54.352;9.074;2022-11-14T05:11:18;8.40;99.90
21508;DHT22;10915;54.352;9.074;2022-11-14T05:13:44;8.40;99.90
21508;DHT22;10915;54.352;9.074;2022-11-14T05:16:10;8.40;99.90
21508;DHT22;10915;54.352;9.074;2022-11-14T05:18:37;8.40;99.90
21508;DHT22;10915;54.352;9.074;2022-11-14T05:21:03;8.40;99.90
21508;DHT22;10915;54.352;9.074;2022-11-14T05:23:29;8.40;99.90
21508;DHT22;10915;54.352;9.074;2022-11-14T05:26:02;8.30;99.90
21508;DHT22;10915;54.352;9.074;2022-11-14T05:28:29;8.30;99.90
21508;DHT22;10915;54.352;9.074;2022-11-14T05:31:02;8.40;99.90
21508;DHT22;10915;54.352;9.074;2022-11-14T05:33:28;8.40;99.90
21508;DHT22;10915;54.352;9.074;2022-11-14T05:35:54;8.40;99.90
21508;DHT22;10915;54.352;9.074;2022-11-14T05:38:20;8.40;99.90
21508;DHT22;10915;54.352;9.074;2022-11-14T05:40:46;8.30;99.90
21508;DHT22;10915;54.352;9.074;2022-11-14T05:43:12;8.40;99.90
21508;DHT22;10915;54.352;9.074;2022-11-14T05:45:37;8.30;99.90
21508;DHT22;10915;54.352;9.074;2022-11-14T05:48:03;8.30;99.90
21508;DHT22;10915;54.352;9.074;2022-11-14T05:50:29;8.40;99.90
21508;DHT22;10915;54.352;9.074;2022-11-14T05:52:55;8.30;99.90
21508;DHT22;10915;54.352;9.074;2022-11-14T05:55:21;8.30;99.90
21508;DHT22;10915;54.352;9.074;2022-11-14T05:57:47;8.30;99.90
21508;DHT22;10915;54.352;9.074;2022-11-14T06:00:13;8.40;99.90
21508;DHT22;10915;54.352;9.074;2022-11-14T06:02:46;8.40;99.90
21508;DHT22;10915;54.352;9.074;2022-11-14T06:05:13;8.40;99.90
21508;DHT22;10915;54.352;9.074;2022-11-14T06:07:39;8.30;99.90
21508;DHT22;10915;54.352;9.074;2022-11-14T06:10:05;8.30;99.90
21508;DHT22;10915;54.352;9.074;2022-11-14T06:12:31;8.30;99.90
21508;DHT22;10915;54.352;9.074;2022-11-14T06:14:57;8.30;99.90
21508;DHT22;10915;54.352;9.074;2022-11-14T06:17:22;8.30;99.90
21508;DHT22;10915;54.352;9.074;2022-11-14T06:19:48;8.20;99.90
21508;DHT22;10915;54.352;9.074;2022-11-14T06:22:14;8.20;99.90
21508;DHT22;10915;54.352;9.074;2022-11-14T06:24:39;8.20;99.90
21508;DHT22;10915;54.352;9.074;2022-11-14T06:27:05;8.20;99.90
21508;DHT22;10915;54.352;9.074;2022-11-14T06:29:31;8.20;99.90
21508;DHT22;10915;54.352;9.074;2022-11-14T06:31:56;8.20;99.90
21508;DHT22;10915;54.352;9.074;2022-11-14T06:34:22;8.20;99.90
21508;DHT22;10915;54.352;9.074;2022-11-14T06:36:48;8.30;99.90
21508;DHT22;10915;54.352;9.074;2022-11-14T06:39:13;8.30;99.90
21508;DHT22;10915;54.352;9.074;2022-11-14T06:41:39;8.30;99.90
21508;DHT22;10915;54.352;9.074;2022-11-14T06:44:07;8.20;99.90
21508;DHT22;10915;54.352;9.074;2022-11-14T06:46:32;8.20;99.90
21508;DHT22;10915;54.352;9.074;2022-11-14T06:48:58;8.20;99.90
21508;DHT22;10915;54.352;9.074;2022-11-14T06:51:24;8.20;99.90
21508;DHT22;10915;54.352;9.074;2022-11-14T06:53:50;8.20;99.90
21508;DHT22;10915;54.352;9.074;2022-11-14T06:56:16;8.10;99.90
21508;DHT22;10915;54.352;9.074;2022-11-14T06:58:45;8.20;99.90
21508;DHT22;10915;54.352;9.074;2022-11-14T07:01:20;8.10;99.90
21508;DHT22;10915;54.352;9.074;2022-11-14T07:03:49;8.10;99.90
21508;DHT22;10915;54.352;9.074;2022-11-14T07:06:18;8.10;99.90
21508;DHT22;10915;54.352;9.074;2022-11-14T07:08:44;8.20;99.90
21508;DHT22;10915;54.352;9.074;2022-11-14T07:11:12;8.10;99.90
21508;DHT22;10915;54.352;9.074;2022-11-14T07:14:01;8.10;99.90
21508;DHT22;10915;54.352;9.074;2022-11-14T07:16:34;8.10;99.90
21508;DHT22;10915;54.352;9.074;2022-11-14T07:19:02;8.10;99.90
21508;DHT22;10915;54.352;9.074;2022-11-14T07:21:29;8.10;99.90
21508;DHT22;10915;54.352;9.074;2022-11-14T07:23:56;8.10;99.90
21508;DHT22;10915;54.352;9.074;2022-11-14T07:26:22;8.10;99.90
21508;DHT22;10915;54.352;9.074;2022-11-14T07:28:48;8.10;99.90
21508;DHT22;10915;54.352;9.074;2022-11-14T07:31:16;8.10;99.90
21508;DHT22;10915;54.352;9.074;2022-11-14T07:33:44;8.10;99.90
21508;DHT22;10915;54.352;9.074;2022-11-14T07:36:10;8.10;99.90
21508;DHT22;10915;54.352;9.074;2022-11-14T07:38:37;8.10;99.90
21508;DHT22;10915;54.352;9.074;2022-11-14T07:41:05;8.10;99.90
21508;DHT22;10915;54.352;9.074;2022-11-14T07:43:31;8.10;99.90
21508;DHT22;10915;54.352;9.074;2022-11-14T07:46:05;8.20;99.90
21508;DHT22;10915;54.352;9.074;2022-11-14T07:48:32;8.20;99.90
21508;DHT22;10915;54.352;9.074;2022-11-14T07:51:03;8.10;99.90
21508;DHT22;10915;54.352;9.074;2022-11-14T07:53:30;8.20;99.90
21508;DHT22;10915;54.352;9.074;2022-11-14T07:56:00;8.20;99.90
21508;DHT22;10915;54.352;9.074;2022-11-14T07:58:26;8.20;99.90
21508;DHT22;10915;54.352;9.074;2022-11-14T08:00:52;8.20;99.90
21508;DHT22;10915;54.352;9.074;2022-11-14T08:03:17;8.20;99.90
21508;DHT22;10915;54.352;9.074;2022-11-14T08:05:43;8.20;99.90
21508;DHT22;10915;54.352;9.074;2022-11-14T08:08:09;8.20;99.90
21508;DHT22;10915;54.352;9.074;2022-11-14T08:10:35;8.20;99.90
21508;DHT22;10915;54.352;9.074;2022-11-14T08:13:03;8.20;99.90
21508;DHT22;10915;54.352;9.074;2022-11-14T08:15:29;8.20;99.90
21508;DHT22;10915;54.352;9.074;2022-11-14T08:17:59;8.20;99.90
21508;DHT22;10915;54.352;9.074;2022-11-14T08:20:26;8.20;99.90
21508;DHT22;10915;54.352;9.074;2022-11-14T08:23:03;8.20;99.90
21508;DHT22;10915;54.352;9.074;2022-11-14T08:25:30;8.20;99.90
21508;DHT22;10915;54.352;9.074;2022-11-14T08:28:10;8.20;99.90
21508;DHT22;10915;54.352;9.074;2022-11-14T08:30:47;8.30;99.90
21508;DHT22;10915;54.352;9.074;2022-11-14T08:33:21;8.30;99.90
21508;DHT22;10915;54.352;9.074;2022-11-14T08:35:46;8.30;99.90
21508;DHT22;10915;54.352;9.074;2022-11-14T08:38:12;8.30;99.90
21508;DHT22;10915;54.352;9.074;2022-11-14T08:40:38;8.30;99.90
21508;DHT22;10915;54.352;9.074;2022-11-14T08:43:04;8.30;99.90
21508;DHT22;10915;54.352;9.074;2022-11-14T08:45:30;8.30;99.90
21508;DHT22;10915;54.352;9.074;2022-11-14T08:47:56;8.30;99.90
21508;DHT22;10915;54.352;9.074;2022-11-14T08:50:22;8.20;99.90
21508;DHT22;10915;54.352;9.074;2022-11-14T08:52:51;8.10;99.90
21508;DHT22;10915;54.352;9.074;2022-11-14T08:55:18;8.20;99.90
21508;DHT22;10915;54.352;9.074;2022-11-14T08:57:43;8.20;99.90
21508;DHT22;10915;54.352;9.074;2022-11-14T09:00:10;8.10;99.90
21508;DHT22;10915;54.352;9.074;2022-11-14T09:02:36;8.10;99.90
21508;DHT22;10915;54.352;9.074;2022-11-14T09:05:02;8.10;99.90
21508;DHT22;10915;54.352;9.074;2022-11-14T09:07:27;8.20;99.90
21508;DHT22;10915;54.352;9.074;2022-11-14T09:09:53;8.20;99.90
21508;DHT22;10915;54.352;9.074;2022-11-14T09:12:19;8.30;99.90
21508;DHT22;10915;54.352;9.074;2022-11-14T09:14:45;8.30;99.90
21508;DHT22;10915;54.352;9.074;2022-11-14T09:17:10;8.40;99.90
21508;DHT22;10915;54.352;9.074;2022-11-14T09:19:36;8.40;99.90
21508;DHT22;10915;54.352;9.074;2022-11-14T09:22:02;8.40;99.90
21508;DHT22;10915;54.352;9.074;2022-11-14T09:24:27;8.40;99.90
21508;DHT22;10915;54.352;9.074;2022-11-14T09:26:53;8.40;99.90
21508;DHT22;10915;54.352;9.074;2022-11-14T09:29:19;8.30;99.90
21508;DHT22;10915;54.352;9.074;2022-11-14T09:31:45;8.40;99.90
21508;DHT22;10915;54.352;9.074;2022-11-14T09:34:10;8.30;99.90
21508;DHT22;10915;54.352;9.074;2022-11-14T09:36:36;8.30;99.90
21508;DHT22;10915;54.352;9.074;2022-11-14T09:39:02;8.30;99.90
21508;DHT22;10915;54.352;9.074;2022-11-14T09:44:54;8.30;99.90
21508;DHT22;10915;54.352;9.074;2022-11-14T09:47:06;8.30;99.90
21508;DHT22;10915;54.352;9.074;2022-11-14T09:49:45;8.30;99.90
21508;DHT22;10915;54.352;9.074;2022-11-14T09:52:25;8.30;99.90
21508;DHT22;10915;54.352;9.074;2022-11-14T09:54:56;8.30;99.90
21508;DHT22;10915;54.352;9.074;2022-11-14T09:57:22;8.20;99.90
21508;DHT22;10915;54.352;9.074;2022-11-14T09:59:49;8.20;99.90
21508;DHT22;10915;54.352;9.074;2022-11-14T10:02:20;8.20;99.90
21508;DHT22;10915;54.352;9.074;2022-11-14T10:16:35;8.20;99.90
21508;DHT22;10915;54.352;9.074;2022-11-14T10:27:35;8.30;99.90
21508;DHT22;10915;54.352;9.074;2022-11-14T10:30:15;8.40;99.90
21508;DHT22;10915;54.352;9.074;2022-11-14T10:35:23;8.30;99.90
21508;DHT22;10915;54.352;9.074;2022-11-14T10:40:37;8.40;99.90
21508;DHT22;10915;54.352;9.074;2022-11-14T10:43:43;8.30;99.90
21508;DHT22;10915;54.352;9.074;2022-11-14T10:46:29;8.30;99.90
21508;DHT22;10915;54.352;9.074;2022-11-14T10:48:58;8.30;99.90
21508;DHT22;10915;54.352;9.074;2022-11-14T10:51:35;8.30;99.90
21508;DHT22;10915;54.352;9.074;2022-11-14T10:56:47;8.30;99.90
21508;DHT22;10915;54.352;9.074;2022-11-14T10:59:14;8.30;99.90
21508;DHT22;10915;54.352;9.074;2022-11-14T11:01:41;8.40;99.90
21508;DHT22;10915;54.352;9.074;2022-11-14T11:04:17;8.40;99.90
21508;DHT22;10915;54.352;9.074;2022-11-14T11:06:45;8.40;99.90
21508;DHT22;10915;54.352;9.074;2022-11-14T11:09:23;8.40;99.90
21508;DHT22;10915;54.352;9.074;2022-11-14T11:12:13;8.50;99.90
21508;DHT22;10915;54.352;9.074;2022-11-14T11:14:40;8.50;99.90
21508;DHT22;10915;54.352;9.074;2022-11-14T11:19:39;8.40;99.90
21508;DHT22;10915;54.352;9.074;2022-11-14T11:22:42;8.50;99.90
21508;DHT22;10915;54.352;9.074;2022-11-14T13:14:19;8.60;99.90
21508;DHT22;10915;54.352;9.074;2022-11-14T13:20:04;8.50;99.90
21508;DHT22;10915;54.352;9.074;2022-11-14T13:31:06;8.80;99.90
21508;DHT22;10915;54.352;9.074;2022-11-14T13:33:55;8.80;99.90
21508;DHT22;10915;54.352;9.074;2022-11-14T13:47:26;8.60;99.90
21508;DHT22;10915;54.352;9.074;2022-11-14T13:50:16;8.60;99.90
21508;DHT22;10915;54.352;9.074;2022-11-14T13:52:47;8.70;99.90
21508;DHT22;10915;54.352;9.074;2022-11-14T13:55:37;8.70;99.90
21508;DHT22;10915;54.352;9.074;2022-11-14T14:01:21;8.60;99.90
21508;DHT22;10915;54.352;9.074;2022-11-14T14:07:10;8.50;99.90
21508;DHT22;10915;54.352;9.074;2022-11-14T14:12:21;8.50;99.90
21508;DHT22;10915;54.352;9.074;2022-11-14T14:15:06;8.60;99.90
21508;DHT22;10915;54.352;9.074;2022-11-14T14:29:19;8.60;99.90
21508;DHT22;10915;54.352;9.074;2022-11-14T14:31:47;8.60;99.90
21508;DHT22;10915;54.352;9.074;2022-11-14T14:34:24;8.50;99.90
21508;DHT22;10915;54.352;9.074;2022-11-14T14:36:53;8.50;99.90
21508;DHT22;10915;54.352;9.074;2022-11-14T14:39:25;8.50;99.90
21508;DHT22;10915;54.352;9.074;2022-11-14T14:41:59;8.50;99.90
21508;DHT22;10915;54.352;9.074;2022-11-14T14:44:38;8.40;99.90
21508;DHT22;10915;54.352;9.074;2022-11-14T14:47:38;8.40;99.90
21508;DHT22;10915;54.352;9.074;2022-11-14T14:50:19;8.30;99.90
21508;DHT22;10915;54.352;9.074;2022-11-14T14:52:45;8.40;99.90
21508;DHT22;10915;54.352;9.074;2022-11-14T14:55:24;8.40;99.90
21508;DHT22;10915;54.352;9.074;2022-11-14T14:57:50;8.30;99.90
21508;DHT22;10915;54.352;9.074;2022-11-14T15:00:27;8.20;99.90
21508;DHT22;10915;54.352;9.074;2022-11-14T15:02:57;8.20;99.90
21508;DHT22;10915;54.352;9.074;2022-11-14T15:05:30;8.30;99.90
21508;DHT22;10915;54.352;9.074;2022-11-14T15:07:58;8.30;99.90
21508;DHT22;10915;54.352;9.074;2022-11-14T15:10:31;8.30;99.90
21508;DHT22;10915;54.352;9.074;2022-11-14T15:12:58;8.20;99.90
21508;DHT22;10915;54.352;9.074;2022-11-14T15:15:25;8.20;99.90
21508;DHT22;10915;54.352;9.074;2022-11-14T15:17:54;8.10;99.90
21508;DHT22;10915;54.352;9.074;2022-11-14T15:20:28;8.00;99.90
21508;DHT22;10915;54.352;9.074;2022-11-14T15:23:18;7.90;99.90
21508;DHT22;10915;54.352;9.074;2022-11-14T15:25:49;7.80;99.90
21508;DHT22;10915;54.352;9.074;2022-11-14T15:28:26;7.70;99.90
21508;DHT22;10915;54.352;9.074;2022-11-14T15:31:18;7.70;99.90
21508;DHT22;10915;54.352;9.074;2022-11-14T15:34:04;7.60;99.90
21508;DHT22;10915;54.352;9.074;2022-11-14T15:42:49;7.30;99.90
21508;DHT22;10915;54.352;9.074;2022-11-14T15:45:37;7.30;99.90
21508;DHT22;10915;54.352;9.074;2022-11-14T15:48:14;7.20;99.90
21508;DHT22;10915;54.352;9.074;2022-11-14T15:50:58;7.10;99.90
21508;DHT22;10915;54.352;9.074;2022-11-14T15:53:35;7.10;99.90
21508;DHT22;10915;54.352;9.074;2022-11-14T15:56:24;7.10;99.90
21508;DHT22;10915;54.352;9.074;2022-11-14T15:58:59;7.10;99.90
21508;DHT22;10915;54.352;9.074;2022-11-14T16:01:25;7.10;99.90
21508;DHT22;10915;54.352;9.074;2022-11-14T16:09:43;6.80;99.90
21508;DHT22;10915;54.352;9.074;2022-11-14T16:12:10;6.80;99.90
21508;DHT22;10915;54.352;9.074;2022-11-14T16:14:47;6.80;99.90
21508;DHT22;10915;54.352;9.074;2022-11-14T16:17:43;6.80;99.90
21508;DHT22;10915;54.352;9.074;2022-11-14T16:20:26;6.80;99.90
21508;DHT22;10915;54.352;9.074;2022-11-14T16:22:55;6.80;99.90
21508;DHT22;10915;54.352;9.074;2022-11-14T16:25:28;6.80;99.90
21508;DHT22;10915;54.352;9.074;2022-11-14T16:27:57;6.80;99.90
21508;DHT22;10915;54.352;9.074;2022-11-14T16:30:26;6.80;99.90
21508;DHT22;10915;54.352;9.074;2022-11-14T16:32:53;6.80;99.90
21508;DHT22;10915;54.352;9.074;2022-11-14T16:35:21;6.80;99.90
21508;DHT22;10915;54.352;9.074;2022-11-14T16:37:49;6.80;99.90
21508;DHT22;10915;54.352;9.074;2022-11-14T16:40:24;6.80;99.90
21508;DHT22;10915;54.352;9.074;2022-11-14T16:42:54;6.80;99.90
21508;DHT22;10915;54.352;9.074;2022-11-14T16:45:20;6.80;99.90
21508;DHT22;10915;54.352;9.074;2022-11-14T16:47:51;6.80;99.90
21508;DHT22;10915;54.352;9.074;2022-11-14T16:50:18;6.80;99.90
21508;DHT22;10915;54.352;9.074;2022-11-14T16:53:06;6.70;99.90
21508;DHT22;10915;54.352;9.074;2022-11-14T16:55:32;6.60;99.90
21508;DHT22;10915;54.352;9.074;2022-11-14T16:58:02;6.60;99.90
21508;DHT22;10915;54.352;9.074;2022-11-14T17:00:41;6.60;99.90
21508;DHT22;10915;54.352;9.074;2022-11-14T17:03:23;6.60;99.90
21508;DHT22;10915;54.352;9.074;2022-11-14T17:05:51;6.60;99.90
21508;DHT22;10915;54.352;9.074;2022-11-14T17:08:39;6.60;99.90
21508;DHT22;10915;54.352;9.074;2022-11-14T17:11:15;6.60;99.90
21508;DHT22;10915;54.352;9.074;2022-11-14T17:16:40;6.60;99.90
21508;DHT22;10915;54.352;9.074;2022-11-14T17:19:09;6.60;99.90
21508;DHT22;10915;54.352;9.074;2022-11-14T17:24:38;6.60;99.90
21508;DHT22;10915;54.352;9.074;2022-11-14T17:27:12;6.60;99.90
21508;DHT22;10915;54.352;9.074;2022-11-14T17:29:39;6.70;99.90
21508;DHT22;10915;54.352;9.074;2022-11-14T17:34:41;6.70;99.90
21508;DHT22;10915;54.352;9.074;2022-11-14T17:37:07;6.70;99.90
21508;DHT22;10915;54.352;9.074;2022-11-14T17:39:32;6.70;99.90
21508;DHT22;10915;54.352;9.074;2022-11-14T17:41:59;6.70;99.90
21508;DHT22;10915;54.352;9.074;2022-11-14T17:44:25;6.60;99.90
21508;DHT22;10915;54.352;9.074;2022-11-14T17:46:50;6.70;99.90
21508;DHT22;10915;54.352;9.074;2022-11-14T17:49:18;6.70;99.90
21508;DHT22;10915;54.352;9.074;2022-11-14T17:51:43;6.70;99.90
21508;DHT22;10915;54.352;9.074;2022-11-14T17:54:09;6.70;99.90
21508;DHT22;10915;54.352;9.074;2022-11-14T17:56:35;6.70;99.90
21508;DHT22;10915;54.352;9.074;2022-11-14T17:59:00;6.70;99.90
21508;DHT22;10915;54.352;9.074;2022-11-14T18:01:26;6.60;99.90
21508;DHT22;10915;54.352;9.074;2022-11-14T18:03:55;6.60;99.90
21508;DHT22;10915;54.352;9.074;2022-11-14T18:06:20;6.60;99.90
21508;DHT22;10915;54.352;9.074;2022-11-14T18:08:47;6.60;99.90
21508;DHT22;10915;54.352;9.074;2022-11-14T18:11:14;6.60;99.90
21508;DHT22;10915;54.352;9.074;2022-11-14T18:13:40;6.60;99.90
21508;DHT22;10915;54.352;9.074;2022-11-14T18:16:10;6.60;99.90
21508;DHT22;10915;54.352;9.074;2022-11-14T18:18:37;6.50;99.90
21508;DHT22;10915;54.352;9.074;2022-11-14T18:21:15;6.50;99.90
21508;DHT22;10915;54.352;9.074;2022-11-14T18:23:41;6.60;99.90
21508;DHT22;10915;54.352;9.074;2022-11-14T18:26:12;6.50;99.90
21508;DHT22;10915;54.352;9.074;2022-11-14T18:28:38;6.50;99.90
21508;DHT22;10915;54.352;9.074;2022-11-14T18:31:05;6.50;99.90
21508;DHT22;10915;54.352;9.074;2022-11-14T18:33:33;6.50;99.90
21508;DHT22;10915;54.352;9.074;2022-11-14T18:36:00;6.50;99.90
21508;DHT22;10915;54.352;9.074;2022-11-14T18:38:31;6.50;99.90
21508;DHT22;10915;54.352;9.074;2022-11-14T18:40:58;6.50;99.90
21508;DHT22;10915;54.352;9.074;2022-11-14T18:43:25;6.60;99.90
21508;DHT22;10915;54.352;9.074;2022-11-14T18:45:51;6.60;99.90
21508;DHT22;10915;54.352;9.074;2022-11-14T18:48:17;6.60;99.90
21508;DHT22;10915;54.352;9.074;2022-11-14T18:50:42;6.50;99.90
21508;DHT22;10915;54.352;9.074;2022-11-14T18:53:08;6.50;99.90
21508;DHT22;10915;54.352;9.074;2022-11-14T18:55:38;6.50;99.90
21508;DHT22;10915;54.352;9.074;2022-11-14T18:58:04;6.50;99.90
21508;DHT22;10915;54.352;9.074;2022-11-14T19:00:30;6.50;99.90
21508;DHT22;10915;54.352;9.074;2022-11-14T19:02:56;6.50;99.90
21508;DHT22;10915;54.352;9.074;2022-11-14T19:05:22;6.50;99.90
21508;DHT22;10915;54.352;9.074;2022-11-14T19:07:50;6.50;99.90
21508;DHT22;10915;54.352;9.074;2022-11-14T19:10:16;6.40;99.90
21508;DHT22;10915;54.352;9.074;2022-11-14T19:12:42;6.40;99.90
21508;DHT22;10915;54.352;9.074;2022-11-14T19:15:08;6.40;99.90
21508;DHT22;10915;54.352;9.074;2022-11-14T19:17:35;6.40;99.90
21508;DHT22;10915;54.352;9.074;2022-11-14T19:20:01;6.40;99.90
21508;DHT22;10915;54.352;9.074;2022-11-14T19:22:28;6.40;99.90
21508;DHT22;10915;54.352;9.074;2022-11-14T19:24:54;6.30;99.90
21508;DHT22;10915;54.352;9.074;2022-11-14T19:27:21;6.30;99.90
21508;DHT22;10915;54.352;9.074;2022-11-14T19:29:46;6.30;99.90